sensor_id;sensor_type;location;lat;lon;timestamp;temperature;humidity
19224;DHT22;9746;47.180;9.776;2022-07-23T05:23:07;20.00;99.90
19224;DHT22;9746;47.180;9.776;2022-07-23T05:25:34;20.00;99.90
19224;DHT22;9746;47.180;9.776;2022-07-23T05:28:02;20.10;99.90
19224;DHT22;9746;47.180;9.776;2022-07-23T05:30:30;20.10;99.90
19224;DHT22;9746;47.180;9.776;2022-07-23T05:32:57;20.10;99.90
19224;DHT22;9746;47.180;9.776;2022-07-23T05:35:25;20.00;99.90
19224;DHT22;9746;47.180;9.776;2022-07-23T05:37:52;20.00;99.90
19224;DHT22;9746;47.180;9.776;2022-07-23T05:40:21;20.00;99.90
19224;DHT22;9746;47.180;9.776;2022-07-23T05:42:49;20.10;99.90
19224;DHT22;9746;47.180;9.776;2022-07-23T05:45:16;20.10;99.90
19224;DHT22;9746;47.180;9.776;2022-07-23T05:47:45;20.10;99.90
19224;DHT22;9746;47.180;9.776;2022-07-23T05:50:14;20.20;99.90
19224;DHT22;9746;47.180;9.776;2022-07-23T05:52:42;20.30;99.90
19224;DHT22;9746;47.180;9.776;2022-07-23T05:55:11;20.30;99.90
19224;DHT22;9746;47.180;9.776;2022-07-23T05:57:41;20.20;99.90
19224;DHT22;9746;47.180;9.776;2022-07-23T06:00:15;20.30;99.90
19224;DHT22;9746;47.180;9.776;2022-07-23T06:02:42;20.30;99.90
19224;DHT22;9746;47.180;9.776;2022-07-23T06:05:11;20.30;99.90
19224;DHT22;9746;47.180;9.776;2022-07-23T06:07:38;20.30;99.90
19224;DHT22;9746;47.180;9.776;2022-07-23T06:10:23;20.30;99.90
19224;DHT22;9746;47.180;9.776;2022-07-23T06:12:52;20.30;99.90
19224;DHT22;9746;47.180;9.776;2022-07-23T06:15:28;20.30;99.90
19224;DHT22;9746;47.180;9.776;2022-07-23T06:17:56;20.40;99.90
19224;DHT22;9746;47.180;9.776;2022-07-23T06:20:32;20.50;99.90
19224;DHT22;9746;47.180;9.776;2022-07-23T06:23:00;20.60;99.90
19224;DHT22;9746;47.180;9.776;2022-07-23T06:25:31;20.70;99.90
19224;DHT22;9746;47.180;9.776;2022-07-23T06:28:00;20.80;99.90
19224;DHT22;9746;47.180;9.776;2022-07-23T06:33:52;21.00;99.90
19224;DHT22;9746;47.180;9.776;2022-07-23T06:36:19;21.00;99.90
19224;DHT22;9746;47.180;9.776;2022-07-23T06:38:47;21.00;99.90
19224;DHT22;9746;47.180;9.776;2022-07-23T06:41:14;21.20;99.90
19224;DHT22;9746;47.180;9.776;2022-07-23T06:43:44;21.30;99.90
19224;DHT22;9746;47.180;9.776;2022-07-23T06:46:11;21.50;99.90
19224;DHT22;9746;47.180;9.776;2022-07-23T06:48:39;21.60;99.90
19224;DHT22;9746;47.180;9.776;2022-07-23T06:51:07;21.60;99.90
19224;DHT22;9746;47.180;9.776;2022-07-23T06:53:34;21.70;99.90
19224;DHT22;9746;47.180;9.776;2022-07-23T06:56:02;21.80;99.90
19224;DHT22;9746;47.180;9.776;2022-07-23T06:58:29;21.90;99.90
19224;DHT22;9746;47.180;9.776;2022-07-23T07:00:58;22.00;99.90
19224;DHT22;9746;47.180;9.776;2022-07-23T07:03:25;22.00;99.90
19224;DHT22;9746;47.180;9.776;2022-07-23T07:05:53;22.00;99.90
19224;DHT22;9746;47.180;9.776;2022-07-23T07:08:20;22.00;99.90
19224;DHT22;9746;47.180;9.776;2022-07-23T07:10:48;22.00;99.90
19224;DHT22;9746;47.180;9.776;2022-07-23T07:13:15;22.00;99.90
19224;DHT22;9746;47.180;9.776;2022-07-23T07:15:42;22.00;99.90
19224;DHT22;9746;47.180;9.776;2022-07-23T07:18:11;22.00;99.90
19224;DHT22;9746;47.180;9.776;2022-07-23T07:20:39;22.00;99.90
19224;DHT22;9746;47.180;9.776;2022-07-23T07:23:06;22.00;99.90
19224;DHT22;9746;47.180;9.776;2022-07-23T07:25:34;22.00;99.90
19224;DHT22;9746;47.180;9.776;2022-07-23T07:28:02;22.00;99.90
19224;DHT22;9746;47.180;9.776;2022-07-23T07:30:29;22.10;99.90
19224;DHT22;9746;47.180;9.776;2022-07-23T07:32:57;22.20;99.90
19224;DHT22;9746;47.180;9.776;2022-07-23T07:35:26;22.30;99.90
19224;DHT22;9746;47.180;9.776;2022-07-23T07:37:53;22.30;99.90
19224;DHT22;9746;47.180;9.776;2022-07-23T07:40:21;22.40;99.90
19224;DHT22;9746;47.180;9.776;2022-07-23T07:42:49;22.50;99.90
19224;DHT22;9746;47.180;9.776;2022-07-23T07:45:19;22.50;99.90
19224;DHT22;9746;47.180;9.776;2022-07-23T07:47:47;22.50;99.90
19224;DHT22;9746;47.180;9.776;2022-07-23T07:50:17;22.50;99.90
19224;DHT22;9746;47.180;9.776;2022-07-23T07:52:47;22.50;99.90
19224;DHT22;9746;47.180;9.776;2022-07-23T07:55:14;22.50;99.90
19224;DHT22;9746;47.180;9.776;2022-07-23T07:57:42;22.50;99.90
19224;DHT22;9746;47.180;9.776;2022-07-23T08:00:12;22.50;99.90
19224;DHT22;9746;47.180;9.776;2022-07-23T08:02:42;22.60;99.90
19224;DHT22;9746;47.180;9.776;2022-07-23T08:05:10;22.60;99.90
19224;DHT22;9746;47.180;9.776;2022-07-23T08:07:39;22.50;99.90
19224;DHT22;9746;47.180;9.776;2022-07-23T08:10:08;22.30;99.90
19224;DHT22;9746;47.180;9.776;2022-07-23T08:12:41;22.30;99.90
19224;DHT22;9746;47.180;9.776;2022-07-23T08:15:12;22.30;99.90
19224;DHT22;9746;47.180;9.776;2022-07-23T08:17:40;22.30;99.90
19224;DHT22;9746;47.180;9.776;2022-07-23T08:20:10;22.40;99.90
19224;DHT22;9746;47.180;9.776;2022-07-23T08:22:49;22.40;99.90
19224;DHT22;9746;47.180;9.776;2022-07-23T08:25:21;22.40;99.90
19224;DHT22;9746;47.180;9.776;2022-07-23T08:27:49;22.40;99.90
19224;DHT22;9746;47.180;9.776;2022-07-23T08:30:18;22.50;99.90
19224;DHT22;9746;47.180;9.776;2022-07-23T08:32:51;22.50;99.90
19224;DHT22;9746;47.180;9.776;2022-07-23T08:35:22;22.70;99.90
19224;DHT22;9746;47.180;9.776;2022-07-23T08:37:51;22.80;99.90
19224;DHT22;9746;47.180;9.776;2022-07-23T08:40:23;22.90;99.90
19224;DHT22;9746;47.180;9.776;2022-07-23T08:42:52;23.10;99.90
19224;DHT22;9746;47.180;9.776;2022-07-23T08:45:22;23.30;99.90
19224;DHT22;9746;47.180;9.776;2022-07-23T08:47:51;23.50;99.90
19224;DHT22;9746;47.180;9.776;2022-07-23T08:50:19;23.90;99.90
19224;DHT22;9746;47.180;9.776;2022-07-23T08:52:48;24.30;99.90
19224;DHT22;9746;47.180;9.776;2022-07-23T08:55:16;24.60;99.90
19224;DHT22;9746;47.180;9.776;2022-07-23T08:57:47;25.00;99.90
19224;DHT22;9746;47.180;9.776;2022-07-23T09:00:16;25.40;99.90
19224;DHT22;9746;47.180;9.776;2022-07-23T09:02:45;25.70;99.90
19224;DHT22;9746;47.180;9.776;2022-07-23T09:05:13;25.90;99.90
19224;DHT22;9746;47.180;9.776;2022-07-23T09:08:06;26.00;99.90
19224;DHT22;9746;47.180;9.776;2022-07-23T09:10:47;26.00;99.90
19224;DHT22;9746;47.180;9.776;2022-07-23T09:13:29;26.00;99.90
19224;DHT22;9746;47.180;9.776;2022-07-23T09:15:59;26.10;99.90
19224;DHT22;9746;47.180;9.776;2022-07-23T09:18:32;26.10;99.90
19224;DHT22;9746;47.180;9.776;2022-07-23T09:21:16;26.10;99.90
19224;DHT22;9746;47.180;9.776;2022-07-23T09:23:46;25.90;99.90
19224;DHT22;9746;47.180;9.776;2022-07-23T09:26:26;25.70;99.90
19224;DHT22;9746;47.180;9.776;2022-07-23T09:29:00;25.60;99.90
19224;DHT22;9746;47.180;9.776;2022-07-23T09:31:35;25.50;99.90
19224;DHT22;9746;47.180;9.776;2022-07-23T09:34:11;25.30;99.90
19224;DHT22;9746;47.180;9.776;2022-07-23T09:36:39;25.30;99.90
19224;DHT22;9746;47.180;9.776;2022-07-23T09:39:08;25.30;99.90
19224;DHT22;9746;47.180;9.776;2022-07-23T09:41:38;25.40;99.90
19224;DHT22;9746;47.180;9.776;2022-07-23T09:44:13;25.60;99.90
19224;DHT22;9746;47.180;9.776;2022-07-23T09:46:42;25.70;99.90
19224;DHT22;9746;47.180;9.776;2022-07-23T09:49:16;25.80;99.90
19224;DHT22;9746;47.180;9.776;2022-07-23T09:51:45;26.00;99.90
19224;DHT22;9746;47.180;9.776;2022-07-23T09:54:38;26.20;99.90
19224;DHT22;9746;47.180;9.776;2022-07-23T09:57:08;26.50;99.90
19224;DHT22;9746;47.180;9.776;2022-07-23T09:59:42;26.70;99.90
19224;DHT22;9746;47.180;9.776;2022-07-23T10:02:11;26.80;99.90
19224;DHT22;9746;47.180;9.776;2022-07-23T10:04:41;26.90;99.90
19224;DHT22;9746;47.180;9.776;2022-07-23T10:07:10;27.00;99.90
19224;DHT22;9746;47.180;9.776;2022-07-23T10:09:40;27.10;99.90
19224;DHT22;9746;47.180;9.776;2022-07-23T10:12:11;27.20;99.90
19224;DHT22;9746;47.180;9.776;2022-07-23T10:14:57;27.30;99.90
19224;DHT22;9746;47.180;9.776;2022-07-23T10:17:27;27.50;99.90
19224;DHT22;9746;47.180;9.776;2022-07-23T10:19:54;27.50;99.90
19224;DHT22;9746;47.180;9.776;2022-07-23T10:22:25;27.60;99.90
19224;DHT22;9746;47.180;9.776;2022-07-23T10:25:03;27.90;99.90
19224;DHT22;9746;47.180;9.776;2022-07-23T10:27:47;28.10;99.90
19224;DHT22;9746;47.180;9.776;2022-07-23T10:30:22;28.40;99.90
19224;DHT22;9746;47.180;9.776;2022-07-23T10:33:04;28.80;99.90
19224;DHT22;9746;47.180;9.776;2022-07-23T10:35:39;29.20;99.90
19224;DHT22;9746;47.180;9.776;2022-07-23T10:38:13;29.60;99.90
19224;DHT22;9746;47.180;9.776;2022-07-23T10:40:55;30.00;99.90
19224;DHT22;9746;47.180;9.776;2022-07-23T10:43:23;30.30;99.90
19224;DHT22;9746;47.180;9.776;2022-07-23T10:45:53;30.60;99.90
19224;DHT22;9746;47.180;9.776;2022-07-23T10:48:22;30.80;99.90
19224;DHT22;9746;47.180;9.776;2022-07-23T10:51:08;31.00;99.90
19224;DHT22;9746;47.180;9.776;2022-07-23T10:53:56;31.20;99.90
19224;DHT22;9746;47.180;9.776;2022-07-23T10:57:04;31.40;99.90
19224;DHT22;9746;47.180;9.776;2022-07-23T11:00:09;31.60;99.90
19224;DHT22;9746;47.180;9.776;2022-07-23T11:02:40;31.90;99.90
19224;DHT22;9746;47.180;9.776;2022-07-23T11:05:09;32.10;99.90
19224;DHT22;9746;47.180;9.776;2022-07-23T11:08:11;32.30;99.90
19224;DHT22;9746;47.180;9.776;2022-07-23T11:10:43;32.60;99.90
19224;DHT22;9746;47.180;9.776;2022-07-23T11:13:30;32.80;99.90
19224;DHT22;9746;47.180;9.776;2022-07-23T11:19:03;33.10;99.90
19224;DHT22;9746;47.180;9.776;2022-07-23T11:21:45;33.20;99.90
19224;DHT22;9746;47.180;9.776;2022-07-23T11:24:21;33.20;99.90
19224;DHT22;9746;47.180;9.776;2022-07-23T11:27:01;33.20;99.90
19224;DHT22;9746;47.180;9.776;2022-07-23T11:29:49;33.40;99.90
19224;DHT22;9746;47.180;9.776;2022-07-23T11:32:36;33.20;99.90
19224;DHT22;9746;47.180;9.776;2022-07-23T11:35:24;33.20;99.90
19224;DHT22;9746;47.180;9.776;2022-07-23T11:37:54;33.20;99.90
19224;DHT22;9746;47.180;9.776;2022-07-23T11:40:29;33.10;99.90
19224;DHT22;9746;47.180;9.776;2022-07-23T11:43:00;33.10;99.90
19224;DHT22;9746;47.180;9.776;2022-07-23T11:45:32;33.30;99.90
19224;DHT22;9746;47.180;9.776;2022-07-23T11:48:00;33.60;99.90
19224;DHT22;9746;47.180;9.776;2022-07-23T11:50:31;33.90;99.90
19224;DHT22;9746;47.180;9.776;2022-07-23T11:52:59;34.20;99.90
19224;DHT22;9746;47.180;9.776;2022-07-23T11:55:29;34.40;99.90
19224;DHT22;9746;47.180;9.776;2022-07-23T11:57:57;34.60;99.90
19224;DHT22;9746;47.180;9.776;2022-07-23T12:00:26;34.70;99.90
19224;DHT22;9746;47.180;9.776;2022-07-23T12:02:58;35.20;99.90
19224;DHT22;9746;47.180;9.776;2022-07-23T12:05:30;35.80;99.90
19224;DHT22;9746;47.180;9.776;2022-07-23T12:07:58;36.20;99.90
19224;DHT22;9746;47.180;9.776;2022-07-23T12:10:29;36.90;99.90
19224;DHT22;9746;47.180;9.776;2022-07-23T12:13:03;37.20;99.90
19224;DHT22;9746;47.180;9.776;2022-07-23T12:15:32;37.10;99.90
19224;DHT22;9746;47.180;9.776;2022-07-23T12:18:00;37.00;99.90
19224;DHT22;9746;47.180;9.776;2022-07-23T12:20:32;36.70;99.90
19224;DHT22;9746;47.180;9.776;2022-07-23T12:23:02;36.10;99.90
19224;DHT22;9746;47.180;9.776;2022-07-23T12:25:31;35.60;99.90
19224;DHT22;9746;47.180;9.776;2022-07-23T12:28:03;34.90;99.90
19224;DHT22;9746;47.180;9.776;2022-07-23T12:30:33;34.40;99.90
19224;DHT22;9746;47.180;9.776;2022-07-23T12:33:02;33.70;99.90
19224;DHT22;9746;47.180;9.776;2022-07-23T12:35:38;33.10;99.90
19224;DHT22;9746;47.180;9.776;2022-07-23T12:38:09;32.50;99.90
19224;DHT22;9746;47.180;9.776;2022-07-23T12:40:42;31.90;99.90
19224;DHT22;9746;47.180;9.776;2022-07-23T12:43:17;31.40;99.90
19224;DHT22;9746;47.180;9.776;2022-07-23T12:45:47;30.90;99.90
19224;DHT22;9746;47.180;9.776;2022-07-23T12:48:24;30.60;99.90
19224;DHT22;9746;47.180;9.776;2022-07-23T12:50:55;30.30;99.90
19224;DHT22;9746;47.180;9.776;2022-07-23T12:53:25;30.20;99.90
19224;DHT22;9746;47.180;9.776;2022-07-23T12:56:06;30.00;99.90
19224;DHT22;9746;47.180;9.776;2022-07-23T12:58:41;30.10;99.90
19224;DHT22;9746;47.180;9.776;2022-07-23T13:01:10;30.30;99.90
19224;DHT22;9746;47.180;9.776;2022-07-23T13:03:55;30.60;99.90
19224;DHT22;9746;47.180;9.776;2022-07-23T13:06:25;30.80;99.90
19224;DHT22;9746;47.180;9.776;2022-07-23T13:08:53;30.90;99.90
19224;DHT22;9746;47.180;9.776;2022-07-23T13:11:21;30.80;99.90
19224;DHT22;9746;47.180;9.776;2022-07-23T13:13:49;30.90;99.90
19224;DHT22;9746;47.180;9.776;2022-07-23T13:16:18;31.10;99.90
19224;DHT22;9746;47.180;9.776;2022-07-23T13:18:46;31.20;99.90
19224;DHT22;9746;47.180;9.776;2022-07-23T13:21:15;31.30;99.90
19224;DHT22;9746;47.180;9.776;2022-07-23T13:23:44;31.60;99.90
19224;DHT22;9746;47.180;9.776;2022-07-23T13:26:11;31.90;99.90
19224;DHT22;9746;47.180;9.776;2022-07-23T13:28:39;32.10;99.90
19224;DHT22;9746;47.180;9.776;2022-07-23T13:31:06;32.70;99.90
19224;DHT22;9746;47.180;9.776;2022-07-23T13:33:34;33.20;99.90
19224;DHT22;9746;47.180;9.776;2022-07-23T13:36:02;33.40;99.90
19224;DHT22;9746;47.180;9.776;2022-07-23T13:38:30;33.90;99.90
19224;DHT22;9746;47.180;9.776;2022-07-23T13:40:59;34.40;99.90
19224;DHT22;9746;47.180;9.776;2022-07-23T13:43:29;34.60;99.90
19224;DHT22;9746;47.180;9.776;2022-07-23T13:45:57;34.60;99.90
19224;DHT22;9746;47.180;9.776;2022-07-23T13:48:24;34.80;99.90
19224;DHT22;9746;47.180;9.776;2022-07-23T13:50:52;34.70;99.90
19224;DHT22;9746;47.180;9.776;2022-07-23T13:53:21;34.60;99.90
19224;DHT22;9746;47.180;9.776;2022-07-23T13:55:51;34.60;99.90
19224;DHT22;9746;47.180;9.776;2022-07-23T13:58:20;35.70;99.90
19224;DHT22;9746;47.180;9.776;2022-07-23T14:00:50;36.00;99.90
19224;DHT22;9746;47.180;9.776;2022-07-23T14:03:20;35.40;99.90
19224;DHT22;9746;47.180;9.776;2022-07-23T14:05:48;35.20;99.90
19224;DHT22;9746;47.180;9.776;2022-07-23T14:08:16;35.00;99.90
19224;DHT22;9746;47.180;9.776;2022-07-23T14:10:44;34.50;99.90
19224;DHT22;9746;47.180;9.776;2022-07-23T14:13:12;34.20;99.90
19224;DHT22;9746;47.180;9.776;2022-07-23T14:15:42;33.80;99.90
19224;DHT22;9746;47.180;9.776;2022-07-23T14:18:10;33.50;99.90
19224;DHT22;9746;47.180;9.776;2022-07-23T14:20:37;33.10;99.90
19224;DHT22;9746;47.180;9.776;2022-07-23T14:23:05;32.90;99.90
19224;DHT22;9746;47.180;9.776;2022-07-23T14:25:33;32.50;99.90
19224;DHT22;9746;47.180;9.776;2022-07-23T14:28:01;32.10;99.90
19224;DHT22;9746;47.180;9.776;2022-07-23T14:30:29;31.80;99.90
19224;DHT22;9746;47.180;9.776;2022-07-23T14:32:59;31.40;99.90
19224;DHT22;9746;47.180;9.776;2022-07-23T14:35:27;31.20;99.90
19224;DHT22;9746;47.180;9.776;2022-07-23T14:37:54;31.00;99.90
19224;DHT22;9746;47.180;9.776;2022-07-23T14:40:23;30.80;99.90
19224;DHT22;9746;47.180;9.776;2022-07-23T14:42:52;30.50;99.90
19224;DHT22;9746;47.180;9.776;2022-07-23T14:45:19;30.40;99.90
19224;DHT22;9746;47.180;9.776;2022-07-23T14:47:48;30.30;99.90
19224;DHT22;9746;47.180;9.776;2022-07-23T14:50:18;30.20;99.90
19224;DHT22;9746;47.180;9.776;2022-07-23T14:52:46;30.20;99.90
19224;DHT22;9746;47.180;9.776;2022-07-23T14:55:16;30.30;99.90
19224;DHT22;9746;47.180;9.776;2022-07-23T14:57:45;30.20;99.90
19224;DHT22;9746;47.180;9.776;2022-07-23T15:00:13;30.20;99.90
19224;DHT22;9746;47.180;9.776;2022-07-23T15:02:41;30.30;99.90
19224;DHT22;9746;47.180;9.776;2022-07-23T15:05:09;30.30;99.90
19224;DHT22;9746;47.180;9.776;2022-07-23T15:07:39;30.50;99.90
19224;DHT22;9746;47.180;9.776;2022-07-23T15:10:07;30.50;99.90
19224;DHT22;9746;47.180;9.776;2022-07-23T15:12:35;30.70;99.90
19224;DHT22;9746;47.180;9.776;2022-07-23T15:15:03;31.00;99.90
19224;DHT22;9746;47.180;9.776;2022-07-23T15:17:30;31.20;99.90
19224;DHT22;9746;47.180;9.776;2022-07-23T15:19:59;31.50;99.90
19224;DHT22;9746;47.180;9.776;2022-07-23T15:22:26;31.70;99.90
19224;DHT22;9746;47.180;9.776;2022-07-23T15:24:56;31.70;99.90
19224;DHT22;9746;47.180;9.776;2022-07-23T15:27:23;31.40;99.90
19224;DHT22;9746;47.180;9.776;2022-07-23T15:29:51;31.20;99.90
19224;DHT22;9746;47.180;9.776;2022-07-23T15:32:18;30.90;99.90
19224;DHT22;9746;47.180;9.776;2022-07-23T15:34:46;30.80;99.90
19224;DHT22;9746;47.180;9.776;2022-07-23T15:37:13;30.60;99.90
19224;DHT22;9746;47.180;9.776;2022-07-23T15:39:41;30.30;99.90
19224;DHT22;9746;47.180;9.776;2022-07-23T15:42:10;30.10;99.90
19224;DHT22;9746;47.180;9.776;2022-07-23T15:44:37;29.90;99.90
19224;DHT22;9746;47.180;9.776;2022-07-23T15:47:05;29.60;99.90
19224;DHT22;9746;47.180;9.776;2022-07-23T15:49:35;29.50;99.90
19224;DHT22;9746;47.180;9.776;2022-07-23T15:52:02;29.50;99.90
19224;DHT22;9746;47.180;9.776;2022-07-23T15:54:30;29.60;99.90
19224;DHT22;9746;47.180;9.776;2022-07-23T15:56:57;29.70;99.90
19224;DHT22;9746;47.180;9.776;2022-07-23T15:59:27;29.90;99.90
19224;DHT22;9746;47.180;9.776;2022-07-23T16:01:54;30.00;99.90
19224;DHT22;9746;47.180;9.776;2022-07-23T16:04:22;30.10;99.90
19224;DHT22;9746;47.180;9.776;2022-07-23T16:06:50;30.40;99.90
19224;DHT22;9746;47.180;9.776;2022-07-23T16:09:17;30.80;99.90
19224;DHT22;9746;47.180;9.776;2022-07-23T16:11:45;31.30;99.90
19224;DHT22;9746;47.180;9.776;2022-07-23T16:14:12;32.00;99.90
19224;DHT22;9746;47.180;9.776;2022-07-23T16:16:43;32.70;99.90
19224;DHT22;9746;47.180;9.776;2022-07-23T16:19:10;33.20;99.90
19224;DHT22;9746;47.180;9.776;2022-07-23T16:21:39;33.30;99.90
19224;DHT22;9746;47.180;9.776;2022-07-23T16:24:07;33.40;99.90
19224;DHT22;9746;47.180;9.776;2022-07-23T16:26:35;33.20;99.90
19224;DHT22;9746;47.180;9.776;2022-07-23T16:29:02;32.70;99.90
19224;DHT22;9746;47.180;9.776;2022-07-23T16:31:30;32.30;99.90
19224;DHT22;9746;47.180;9.776;2022-07-23T16:34:00;31.80;99.90
19224;DHT22;9746;47.180;9.776;2022-07-23T16:36:28;30.80;99.90
19224;DHT22;9746;47.180;9.776;2022-07-23T16:38:55;30.50;99.90
19224;DHT22;9746;47.180;9.776;2022-07-23T16:41:24;30.30;99.90
19224;DHT22;9746;47.180;9.776;2022-07-23T16:43:52;30.20;99.90
19224;DHT22;9746;47.180;9.776;2022-07-23T16:46:20;29.80;99.90
19224;DHT22;9746;47.180;9.776;2022-07-23T16:48:47;29.80;99.90
19224;DHT22;9746;47.180;9.776;2022-07-23T16:51:16;29.40;99.90
19224;DHT22;9746;47.180;9.776;2022-07-23T16:53:44;28.70;99.90
19224;DHT22;9746;47.180;9.776;2022-07-23T16:56:12;28.20;99.90
19224;DHT22;9746;47.180;9.776;2022-07-23T16:58:39;28.10;99.90
19224;DHT22;9746;47.180;9.776;2022-07-23T17:01:07;28.00;99.90
19224;DHT22;9746;47.180;9.776;2022-07-23T17:03:35;27.90;99.90
19224;DHT22;9746;47.180;9.776;2022-07-23T17:06:03;27.90;99.90
19224;DHT22;9746;47.180;9.776;2022-07-23T17:08:33;27.70;99.90
19224;DHT22;9746;47.180;9.776;2022-07-23T17:11:01;27.60;99.90
19224;DHT22;9746;47.180;9.776;2022-07-23T17:13:30;27.30;99.90
19224;DHT22;9746;47.180;9.776;2022-07-23T17:15:57;27.20;99.90
19224;DHT22;9746;47.180;9.776;2022-07-23T17:18:25;27.00;99.90
19224;DHT22;9746;47.180;9.776;2022-07-23T17:20:53;27.10;99.90
19224;DHT22;9746;47.180;9.776;2022-07-23T17:23:21;27.20;99.90
19224;DHT22;9746;47.180;9.776;2022-07-23T17:25:52;27.30;99.90
19224;DHT22;9746;47.180;9.776;2022-07-23T17:28:20;27.20;99.90
19224;DHT22;9746;47.180;9.776;2022-07-23T17:30:48;27.30;99.90
19224;DHT22;9746;47.180;9.776;2022-07-23T17:33:16;27.20;99.90
19224;DHT22;9746;47.180;9.776;2022-07-23T17:35:43;27.10;99.90
19224;DHT22;9746;47.180;9.776;2022-07-23T17:38:11;27.10;99.90
19224;DHT22;9746;47.180;9.776;2022-07-23T17:40:39;27.10;99.90
19224;DHT22;9746;47.180;9.776;2022-07-23T17:43:09;26.70;99.90
19224;DHT22;9746;47.180;9.776;2022-07-23T17:45:36;26.60;99.90
19224;DHT22;9746;47.180;9.776;2022-07-23T17:48:04;26.60;99.90
19224;DHT22;9746;47.180;9.776;2022-07-23T17:50:32;26.50;99.90
19224;DHT22;9746;47.180;9.776;2022-07-23T17:53:00;26.50;99.90
19224;DHT22;9746;47.180;9.776;2022-07-23T17:55:28;26.50;99.90
19224;DHT22;9746;47.180;9.776;2022-07-23T17:57:58;26.50;99.90
19224;DHT22;9746;47.180;9.776;2022-07-23T18:00:32;26.50;99.90
19224;DHT22;9746;47.180;9.776;2022-07-23T18:03:00;26.30;99.90
19224;DHT22;9746;47.180;9.776;2022-07-23T18:05:29;26.10;99.90
19224;DHT22;9746;47.180;9.776;2022-07-23T18:07:56;26.00;99.90
19224;DHT22;9746;47.180;9.776;2022-07-23T18:10:25;25.90;99.90
19224;DHT22;9746;47.180;9.776;2022-07-23T18:12:52;25.80;99.90
19224;DHT22;9746;47.180;9.776;2022-07-23T18:15:20;25.80;99.90
19224;DHT22;9746;47.180;9.776;2022-07-23T18:17:49;25.50;99.90
19224;DHT22;9746;47.180;9.776;2022-07-23T18:20:17;25.40;99.90
19224;DHT22;9746;47.180;9.776;2022-07-23T18:22:45;25.20;99.90
19224;DHT22;9746;47.180;9.776;2022-07-23T18:25:13;25.20;99.90
19224;DHT22;9746;47.180;9.776;2022-07-23T18:27:41;25.20;99.90
19224;DHT22;9746;47.180;9.776;2022-07-23T18:30:09;25.20;99.90
19224;DHT22;9746;47.180;9.776;2022-07-23T18:32:37;25.20;99.90
19224;DHT22;9746;47.180;9.776;2022-07-23T18:35:08;25.20;99.90
19224;DHT22;9746;47.180;9.776;2022-07-23T18:37:35;25.20;99.90
19224;DHT22;9746;47.180;9.776;2022-07-23T18:40:05;25.20;99.90
19224;DHT22;9746;47.180;9.776;2022-07-23T18:42:33;25.20;99.90
19224;DHT22;9746;47.180;9.776;2022-07-23T18:45:00;25.20;99.90
19224;DHT22;9746;47.180;9.776;2022-07-23T18:47:29;25.20;99.90
19224;DHT22;9746;47.180;9.776;2022-07-23T18:49:56;25.10;99.90
19224;DHT22;9746;47.180;9.776;2022-07-23T18:52:25;25.10;99.90
19224;DHT22;9746;47.180;9.776;2022-07-23T18:54:54;25.00;99.90
19224;DHT22;9746;47.180;9.776;2022-07-23T18:57:21;25.00;99.90
19224;DHT22;9746;47.180;9.776;2022-07-23T18:59:49;25.00;99.90
19224;DHT22;9746;47.180;9.776;2022-07-23T19:02:17;24.90;99.90
19224;DHT22;9746;47.180;9.776;2022-07-23T19:04:44;24.90;99.90
19224;DHT22;9746;47.180;9.776;2022-07-23T19:07:12;24.80;99.90
19224;DHT22;9746;47.180;9.776;2022-07-23T19:09:41;24.80;99.90
19224;DHT22;9746;47.180;9.776;2022-07-23T19:12:09;24.80;99.90
19224;DHT22;9746;47.180;9.776;2022-07-23T19:14:38;24.80;99.90
19224;DHT22;9746;47.180;9.776;2022-07-23T19:17:06;24.80;99.90
19224;DHT22;9746;47.180;9.776;2022-07-23T19:19:34;24.80;99.90
19224;DHT22;9746;47.180;9.776;2022-07-23T19:22:01;24.60;99.90
19224;DHT22;9746;47.180;9.776;2022-07-23T19:24:32;24.60;99.90
19224;DHT22;9746;47.180;9.776;2022-07-23T19:27:01;24.60;99.90
19224;DHT22;9746;47.180;9.776;2022-07-23T19:29:28;24.60;99.90
19224;DHT22;9746;47.180;9.776;2022-07-23T19:31:56;24.50;99.90
19224;DHT22;9746;47.180;9.776;2022-07-23T19:34:23;24.50;99.90
19224;DHT22;9746;47.180;9.776;2022-07-23T19:36:51;24.50;99.90
19224;DHT22;9746;47.180;9.776;2022-07-23T19:39:19;24.50;99.90
19224;DHT22;9746;47.180;9.776;2022-07-23T19:41:47;24.60;99.90
19224;DHT22;9746;47.180;9.776;2022-07-23T19:44:15;24.60;99.90
19224;DHT22;9746;47.180;9.776;2022-07-23T19:46:43;24.60;99.90
19224;DHT22;9746;47.180;9.776;2022-07-23T19:49:11;24.60;99.90
19224;DHT22;9746;47.180;9.776;2022-07-23T19:51:38;24.50;99.90
19224;DHT22;9746;47.180;9.776;2022-07-23T19:54:06;24.40;99.90
19224;DHT22;9746;47.180;9.776;2022-07-23T19:56:34;24.30;99.90
19224;DHT22;9746;47.180;9.776;2022-07-23T19:59:01;24.20;99.90
19224;DHT22;9746;47.180;9.776;2022-07-23T20:01:31;24.20;99.90
19224;DHT22;9746;47.180;9.776;2022-07-23T20:04:01;24.20;99.90
19224;DHT22;9746;47.180;9.776;2022-07-23T20:06:29;24.10;99.90
19224;DHT22;9746;47.180;9.776;2022-07-23T20:08:56;24.00;99.90
19224;DHT22;9746;47.180;9.776;2022-07-23T20:11:25;24.00;99.90
19224;DHT22;9746;47.180;9.776;2022-07-23T20:13:52;23.90;99.90
19224;DHT22;9746;47.180;9.776;2022-07-23T20:16:20;23.90;99.90
19224;DHT22;9746;47.180;9.776;2022-07-23T20:18:49;23.80;99.90
19224;DHT22;9746;47.180;9.776;2022-07-23T20:21:17;23.80;99.90
19224;DHT22;9746;47.180;9.776;2022-07-23T20:23:45;23.70;99.90
